Please enter the email address for your account. A verification code will be sent to you. Once you have received the verification code, you will be able to choose a new password for your account.

METAR TAF

[Source: ADDS]
METAR
LFCR 210100Z AUTO 11006KT CAVOK 15/13 Q1009 NOSIG =
LFCR 202300Z 2100/2124 VRB03KT CAVOK BECMG 2107/2109 19008KT SCT040TCU TEMPO 2110/2120 SHRA BECMG 2111/2113 30012KT PROB40 TEMPO 2114/2118 VRB15G35KT 4000 TSRA SCT025 BKN040CB PROB30 TEMPO 2115/2118 TSGR BECMG 2117/2119 VRB03KT TEMPO 2122/2124 VRB15G28KT 4000 SHRA BKN025CB LFBA 210100Z AUTO VRB02KT 9999 ///CB 17/16 Q1006 =
AMD LFBA 201508Z 2015/2024 27010KT 9999 SCT030 TEMPO 2015/2024 4000 SHRA FEW040CB BKN045TCU PROB40 TEMPO 2017/2024 4000 TSRA BKN050CB LFSL 210100Z AUTO 00000KT 9999 ///CB 15/15 Q1007 =
LFSL 201400Z 2015/2024 VRB03KT 9999 SCT045TCU TEMPO 2015/2017 SHRA BKN030TCU PROB30 TEMPO 2015/2017 VRB15G35KT 2000 TSRA BKN025CB BECMG 2018/2020 CAVOK LFLW 210100Z AUTO 09009KT CAVOK 13/12 Q1009 =
LFLW 201400Z 2015/2024 VRB03KT 9999 SCT030TCU BECMG 2017/2019 CAVOK
TAF
LFCR 202300Z 2100/2124 VRB03KT CAVOK BECMG 2107/2109 19008KT SCT040TCU TEMPO 2110/2120 SHRA BECMG 2111/2113 30012KT PROB40 TEMPO 2114/2118 VRB15G35KT 4000 TSRA SCT025 BKN040CB PROB30 TEMPO 2115/2118 TSGR BECMG 2117/2119 VRB03KT TEMPO 2122/2124 VRB15G28KT 4000 SHRA BKN025CB =
AMD LFBA 201508Z 2015/2024 27010KT 9999 SCT030 TEMPO 2015/2024 4000 SHRA FEW040CB BKN045TCU PROB40 TEMPO 2017/2024 4000 TSRA BKN050CB =
LFSL 201400Z 2015/2024 VRB03KT 9999 SCT045TCU TEMPO 2015/2017 SHRA BKN030TCU PROB30 TEMPO 2015/2017 VRB15G35KT 2000 TSRA BKN025CB BECMG 2018/2020 CAVOK =
LFLW 201400Z 2015/2024 VRB03KT 9999 SCT030TCU BECMG 2017/2019 CAVOK =
SR / SS: 04:09 / 19:41 UTC (LFCC 2021-06-21)